Time;durP1;ratioP1;P1;durP2;ratioP2;P2;SDS_P1;SDS_P2;PMS_P1;PMS_P2;Temp;Humidity;BMP_temperature;BMP_pressure;BME280_temperature;BME280_humidity;BME280_pressure;Samples;Min_cycle;Max_cycle;Signal;HPM_P1;HPM_P2
2020/12/01 00:01:56;;;;;;;19.32;5.65;;;;;;;3.70;93.36;101847.70;1699382;83;20937;-89
2020/12/01 00:04:22;;;;;;;16.55;5.22;;;;;;;3.96;92.16;101848.58;1700017;82;21188;-89
2020/12/01 00:06:48;;;;;;;18.32;6.33;;;;;;;3.93;92.11;101847.09;1699923;82;21070;-91
2020/12/01 00:09:15;;;;;;;22.52;6.85;;;;;;;3.85;92.17;101835.19;1699514;83;20980;-89
2020/12/01 00:11:40;;;;;;;20.45;7.58;;;;;;;3.70;91.91;101839.70;1700016;82;21218;-90
2020/12/01 00:14:06;;;;;;;24.77;8.83;;;;;;;3.85;91.78;101839.19;1699887;82;21068;-89
2020/12/01 00:16:32;;;;;;;25.72;8.73;;;;;;;3.86;91.38;101842.20;1699373;83;20948;-89
2020/12/01 00:18:59;;;;;;;26.40;9.00;;;;;;;3.91;91.12;101838.95;1667898;82;21049;-89
2020/12/01 00:21:26;;;;;;;25.30;8.93;;;;;;;3.98;90.39;101847.89;1699865;82;22407;-89
2020/12/01 00:23:52;;;;;;;21.68;8.43;;;;;;;3.98;90.00;101846.56;1699927;82;21239;-89
2020/12/01 00:26:19;;;;;;;20.08;6.87;;;;;;;3.79;90.70;101846.59;1667920;84;20986;-89
2020/12/01 00:28:46;;;;;;;20.32;7.78;;;;;;;3.80;90.66;101833.09;1699819;82;21152;-89
2020/12/01 00:31:14;;;;;;;24.50;8.50;;;;;;;3.99;89.99;101845.02;1699731;82;21191;-89
2020/12/01 00:33:40;;;;;;;25.65;10.10;;;;;;;3.98;89.79;101848.72;1699804;82;21152;-89
2020/12/01 00:36:07;;;;;;;28.00;9.28;;;;;;;3.97;89.89;101848.41;1699895;82;22000;-89
2020/12/01 00:38:33;;;;;;;25.48;8.95;;;;;;;3.91;89.85;101851.78;1699719;83;21152;-88
2020/12/01 00:40:59;;;;;;;29.52;11.48;;;;;;;3.80;90.27;101849.09;1699954;82;21183;-89
2020/12/01 00:43:25;;;;;;;30.50;11.38;;;;;;;3.86;90.18;101847.53;1699833;82;21605;-90
2020/12/01 00:45:51;;;;;;;37.13;13.20;;;;;;;3.82;90.06;101855.08;1705672;82;20986;-89
2020/12/01 00:48:17;;;;;;;30.37;11.93;;;;;;;3.62;91.08;101844.13;1709776;83;21177;-89
2020/12/01 00:50:44;;;;;;;38.38;12.37;;;;;;;3.92;89.60;101853.97;1710016;83;21173;-89
2020/12/01 00:53:11;;;;;;;39.23;12.10;;;;;;;3.75;89.21;101860.80;1709969;83;21566;-89
2020/12/01 00:55:37;;;;;;;32.78;12.35;;;;;;;3.95;88.11;101857.59;1709922;83;21149;-89
2020/12/01 00:58:04;;;;;;;26.85;10.30;;;;;;;3.80;88.94;101853.09;1709835;83;21079;-89
2020/12/01 01:00:32;;;;;;;32.15;11.10;;;;;;;3.83;88.84;101855.39;1709994;83;21625;-90
2020/12/01 01:02:59;;;;;;;32.88;11.75;;;;;;;3.69;89.25;101851.38;1709582;83;21570;-89
2020/12/01 01:05:26;;;;;;;27.48;10.13;;;;;;;3.57;89.95;101854.50;1709850;83;21177;-89
2020/12/01 01:07:52;;;;;;;35.65;10.05;;;;;;;3.39;90.24;101848.69;1709922;83;21259;-89
2020/12/01 01:10:28;;;;;;;33.40;10.05;;;;;;;3.55;90.31;101855.17;1709996;82;21471;-89
2020/12/01 01:12:54;;;;;;;28.02;9.78;;;;;;;3.65;89.76;101860.26;1710169;83;21903;-89
2020/12/01 01:15:29;;;;;;;32.08;12.28;;;;;;;3.71;89.39;101857.37;1709721;83;21586;-89
2020/12/01 01:17:56;;;;;;;31.80;10.55;;;;;;;3.60;89.38;101862.64;1670867;83;21762;-90
2020/12/01 01:20:23;;;;;;;28.95;11.03;;;;;;;3.46;90.13;101847.45;1670902;83;21270;-89
2020/12/01 01:22:49;;;;;;;30.80;12.37;;;;;;;3.71;89.22;101870.19;1660021;84;21274;-88
2020/12/01 01:25:15;;;;;;;27.32;10.45;;;;;;;3.51;90.08;101861.89;1659825;85;21184;-89
2020/12/01 01:27:41;;;;;;;33.45;11.20;;;;;;;3.55;90.10;101858.34;1659883;85;21259;-89
2020/12/01 01:30:08;;;;;;;40.98;11.43;;;;;;;3.64;90.12;101855.92;1659947;85;22189;-88
2020/12/01 01:32:34;;;;;;;46.37;12.70;;;;;;;3.61;89.96;101842.45;1660059;85;21190;-88
2020/12/01 01:35:00;;;;;;;33.15;9.83;;;;;;;3.34;91.55;101851.06;1659986;84;21146;-89
2020/12/01 01:37:26;;;;;;;36.42;11.88;;;;;;;3.32;90.79;101858.39;1636205;85;21196;-89
2020/12/01 01:39:52;;;;;;;33.83;12.55;;;;;;;3.27;91.26;101860.80;1659953;85;20957;-89
2020/12/01 01:42:18;;;;;;;37.30;12.85;;;;;;;3.35;91.18;101866.02;1659887;85;21639;-89
2020/12/01 01:44:43;;;;;;;32.65;11.88;;;;;;;3.32;91.05;101853.06;1659911;85;21222;-89
2020/12/01 01:47:29;;;;;;;40.03;13.65;;;;;;;3.45;91.33;101859.12;1660087;83;21061;-89
2020/12/01 01:49:59;;;;;;;35.60;12.23;;;;;;;3.16;92.64;101863.38;1643760;85;21592;-89
2020/12/01 01:52:36;;;;;;;27.35;10.70;;;;;;;3.25;91.83;101864.95;1588903;90;21238;-89
2020/12/01 01:58:44;;;;;;;33.45;12.37;;;;;;;3.24;92.34;101873.97;1591903;87;21769;-89
2020/12/01 02:01:15;;;;;;;36.95;12.88;;;;;;;3.15;92.95;101881.70;1591846;88;21170;-90
2020/12/01 02:03:45;;;;;;;36.00;12.60;;;;;;;3.11;93.39;101870.55;1591790;87;21356;-89
2020/12/01 02:06:23;;;;;;;33.10;11.80;;;;;;;3.05;94.16;101877.92;1591931;90;21262;-90
2020/12/01 02:09:03;;;;;;;38.78;12.88;;;;;;;3.04;94.11;101880.28;1591862;87;21159;-91
2020/12/01 02:11:31;;;;;;;35.13;11.12;;;;;;;3.07;93.65;101864.45;1591933;87;21174;-90
2020/12/01 02:14:23;;;;;;;46.45;13.95;;;;;;;2.75;94.61;101868.17;1591838;87;21359;-90
2020/12/01 02:16:57;;;;;;;45.45;14.10;;;;;;;2.64;96.24;101866.23;1591962;88;21912;-90
2020/12/01 02:19:28;;;;;;;37.88;14.07;;;;;;;2.84;95.66;101869.77;1591779;87;21197;-90
2020/12/01 02:21:57;;;;;;;37.78;13.98;;;;;;;2.82;95.78;101873.92;1588928;88;21107;-89
2020/12/01 02:24:31;;;;;;;34.50;13.72;;;;;;;2.58;95.30;101877.58;1562257;90;21299;-90
2020/12/01 02:27:00;;;;;;;35.45;13.45;;;;;;;2.47;96.85;101869.51;1570536;89;21201;-90
2020/12/01 02:29:34;;;;;;;47.17;14.40;;;;;;;2.59;96.34;101884.58;1588370;89;21268;-89
2020/12/01 02:32:03;;;;;;;40.60;14.18;;;;;;;2.33;97.01;101885.38;1588175;89;21194;-89
2020/12/01 02:34:34;;;;;;;36.23;14.33;;;;;;;2.46;96.80;101890.95;1588343;89;21616;-90
2020/12/01 02:37:03;;;;;;;39.75;13.75;;;;;;;2.31;97.29;101886.05;1588303;89;21176;-89
2020/12/01 02:39:29;;;;;;;39.98;14.38;;;;;;;2.32;96.71;101896.49;1588327;88;21153;-88
2020/12/01 02:42:02;;;;;;;45.98;14.65;;;;;;;2.44;96.79;101885.82;1588255;88;21940;-89
2020/12/01 02:44:28;;;;;;;47.62;14.00;;;;;;;2.51;96.10;101892.59;1588453;88;21217;-88
2020/12/01 02:46:59;;;;;;;39.38;13.60;;;;;;;2.49;95.65;101894.09;1593385;88;21160;-89
2020/12/01 02:49:25;;;;;;;36.08;12.75;;;;;;;2.28;96.75;101891.20;1595140;88;21180;-88
2020/12/01 02:51:51;;;;;;;33.75;13.03;;;;;;;2.17;96.80;101891.58;1595174;88;21006;-89
2020/12/01 02:54:17;;;;;;;39.00;14.45;;;;;;;2.30;96.72;101903.84;1595133;88;21271;-91
2020/12/01 02:56:45;;;;;;;39.63;13.93;;;;;;;2.54;94.86;101915.37;1618017;87;21075;-89
2020/12/01 02:59:10;;;;;;;46.68;15.58;;;;;;;2.54;94.60;101910.88;1590773;89;21725;-89
2020/12/01 03:01:36;;;;;;;47.30;13.48;;;;;;;2.33;95.29;101916.79;1593734;88;20975;-90
2020/12/01 03:04:02;;;;;;;40.55;14.40;;;;;;;2.36;94.82;101916.45;1593819;90;21023;-90
2020/12/01 03:06:28;;;;;;;31.50;13.00;;;;;;;2.37;95.35;101914.61;1593740;88;21413;-91
2020/12/01 03:08:54;;;;;;;55.58;15.70;;;;;;;2.33;94.94;101909.31;1593650;88;21167;-90
2020/12/01 03:11:20;;;;;;;48.90;14.25;;;;;;;2.42;95.18;101925.56;1593676;88;21011;-89
2020/12/01 03:13:46;;;;;;;40.45;12.90;;;;;;;2.43;94.36;101917.91;1593822;88;21181;-89
2020/12/01 03:16:13;;;;;;;42.53;14.28;;;;;;;2.38;94.53;101917.59;1593755;89;21185;-89
2020/12/01 03:18:43;;;;;;;38.75;12.53;;;;;;;2.32;94.85;101912.95;1593871;88;21933;-89
2020/12/01 03:21:13;;;;;;;37.48;13.43;;;;;;;2.27;94.97;101914.82;1656362;84;21211;-90
2020/12/01 03:23:44;;;;;;;47.03;14.07;;;;;;;2.39;94.84;101924.08;1700463;83;21655;-90
2020/12/01 03:26:15;;;;;;;44.58;14.60;;;;;;;2.23;95.53;101922.80;1700453;83;21150;-89
2020/12/01 03:28:42;;;;;;;49.83;14.43;;;;;;;2.45;94.91;101931.36;1699723;84;21135;-89
2020/12/01 03:31:09;;;;;;;36.55;13.13;;;;;;;2.42;94.94;101932.22;1666475;86;21266;-89
2020/12/01 03:33:35;;;;;;;44.10;13.28;;;;;;;2.34;94.57;101934.39;1700316;83;21065;-89
2020/12/01 03:36:01;;;;;;;35.70;12.85;;;;;;;2.41;94.99;101929.20;1699755;84;21627;-87
2020/12/01 03:38:26;;;;;;;51.30;13.10;;;;;;;2.20;95.11;101927.95;1666454;84;20960;-87
2020/12/01 03:40:52;;;;;;;35.13;13.00;;;;;;;2.21;95.16;101933.62;1700462;82;20973;-88
2020/12/01 03:43:18;;;;;;;39.30;12.95;;;;;;;2.06;96.01;101927.36;1700164;83;21965;-87
2020/12/01 03:45:44;;;;;;;41.48;14.30;;;;;;;2.10;96.07;101930.50;1702114;83;21093;-86
2020/12/01 03:48:11;;;;;;;31.35;11.45;;;;;;;2.22;95.42;101932.61;1709971;83;21003;-87
2020/12/01 03:50:37;;;;;;;30.92;12.78;;;;;;;2.05;95.77;101925.68;1710129;83;21129;-87
2020/12/01 03:53:04;;;;;;;33.28;12.07;;;;;;;2.17;95.29;101929.63;1709977;83;21117;-88
2020/12/01 03:55:30;;;;;;;29.67;11.70;;;;;;;2.15;95.04;101925.51;1710108;83;21180;-87
2020/12/01 03:57:56;;;;;;;32.42;11.68;;;;;;;2.18;95.15;101926.50;1709882;83;21201;-87
2020/12/01 04:00:26;;;;;;;27.52;11.22;;;;;;;2.14;95.34;101925.98;1709982;83;21048;-87
2020/12/01 04:02:53;;;;;;;33.60;11.73;;;;;;;2.22;95.30;101927.80;1710007;83;21586;-87
2020/12/01 04:05:23;;;;;;;32.65;11.70;;;;;;;2.03;95.65;101923.71;1709948;83;21629;-87
2020/12/01 04:07:53;;;;;;;27.35;11.03;;;;;;;2.12;95.16;101934.65;1709979;83;21254;-87
2020/12/01 04:10:22;;;;;;;34.23;11.48;;;;;;;2.24;95.12;101933.27;1709984;83;21125;-87
2020/12/01 04:12:49;;;;;;;29.67;10.80;;;;;;;2.07;95.44;101931.67;1709988;83;21129;-88
2020/12/01 04:15:18;;;;;;;27.10;11.43;;;;;;;2.14;96.08;101935.80;1709965;83;21750;-88
2020/12/01 04:17:45;;;;;;;32.75;11.80;;;;;;;1.94;97.01;101933.54;1710079;83;21078;-88
2020/12/01 04:20:13;;;;;;;31.12;11.40;;;;;;;1.94;96.86;101926.89;1709874;83;21165;-88
2020/12/01 04:22:39;;;;;;;28.70;11.75;;;;;;;1.91;97.24;101928.56;1689520;83;21082;-88
2020/12/01 04:25:08;;;;;;;29.30;11.28;;;;;;;1.91;97.43;101929.03;1709802;83;21069;-88
2020/12/01 04:27:34;;;;;;;30.37;11.35;;;;;;;1.98;97.67;101930.03;1709984;83;21129;-88
2020/12/01 04:33:41;;;;;;;31.25;11.80;;;;;;;1.96;96.96;101932.02;1709949;83;21265;-88
2020/12/01 04:36:07;;;;;;;33.78;13.40;;;;;;;2.00;97.52;101931.53;1709999;83;21219;-88
2020/12/01 04:38:33;;;;;;;31.52;12.25;;;;;;;1.96;97.40;101947.47;1709964;83;21154;-88
2020/12/01 04:41:00;;;;;;;28.50;11.65;;;;;;;2.02;97.35;101947.29;1706623;83;20975;-88
2020/12/01 04:43:50;;;;;;;35.23;13.75;;;;;;;1.87;97.46;101947.66;1709868;83;21181;-88
2020/12/01 04:46:20;;;;;;;34.40;12.35;;;;;;;1.97;97.65;101946.96;1709967;82;21253;-88
2020/12/01 04:48:51;;;;;;;27.52;10.78;;;;;;;1.87;98.31;101935.20;1670524;83;21162;-88
2020/12/01 04:51:58;;;;;;;31.52;11.25;;;;;;;1.81;98.65;101927.39;1670710;85;21671;-88
2020/12/01 04:55:04;;;;;;;31.97;11.05;;;;;;;1.74;99.26;101925.59;1670837;83;21291;-88
2020/12/01 04:58:03;;;;;;;32.58;12.37;;;;;;;1.75;99.35;101937.38;1670632;83;21210;-88
2020/12/01 05:00:44;;;;;;;33.40;12.60;;;;;;;1.76;100.00;101940.35;1670741;83;21151;-86
2020/12/01 05:03:37;;;;;;;36.68;12.85;;;;;;;1.74;100.00;101940.22;1615497;86;21178;-87
2020/12/01 05:09:48;;;;;;;48.35;17.55;;;;;;;1.65;99.72;101941.19;1617145;86;21264;-87
2020/12/01 05:12:34;;;;;;;53.13;17.65;;;;;;;1.83;99.22;101942.36;1645121;85;21610;-87
2020/12/01 05:15:21;;;;;;;59.23;19.45;;;;;;;1.82;98.20;101941.51;1617307;87;21276;-87
2020/12/01 05:18:04;;;;;;;48.75;16.45;;;;;;;1.91;98.22;101944.98;1645214;85;21030;-87
2020/12/01 05:20:31;;;;;;;53.20;17.10;;;;;;;1.78;97.48;101949.50;1617656;87;21171;-87
2020/12/01 05:23:00;;;;;;;53.98;17.98;;;;;;;1.78;97.03;101950.83;1645206;84;21681;-87
2020/12/01 05:25:30;;;;;;;57.23;16.97;;;;;;;2.07;95.83;101951.61;1617285;87;22462;-87
2020/12/01 05:28:11;;;;;;;51.68;17.02;;;;;;;1.84;95.77;101953.31;1645090;85;21302;-87
2020/12/01 05:30:42;;;;;;;62.85;19.80;;;;;;;2.01;95.48;101953.62;1617387;87;21211;-87
2020/12/01 05:33:25;;;;;;;58.25;19.50;;;;;;;1.87;96.64;101952.47;1645083;87;21226;-87
2020/12/01 05:36:25;;;;;;;71.40;21.43;;;;;;;1.95;96.23;101951.64;1617537;87;21236;-88
2020/12/01 05:39:14;;;;;;;52.38;17.60;;;;;;;1.89;96.33;101953.64;1641779;84;21153;-87
2020/12/01 05:41:43;;;;;;;58.13;16.97;;;;;;;1.79;97.29;101955.13;1569116;88;21270;-88
2020/12/01 05:44:25;;;;;;;59.48;16.87;;;;;;;1.84;97.96;101960.78;1586953;90;21238;-89
2020/12/01 05:47:05;;;;;;;72.45;15.68;;;;;;;1.83;98.04;101957.80;1550228;89;21249;-89
2020/12/01 05:49:54;;;;;;;78.20;19.37;;;;;;;1.63;99.08;101958.64;1514964;94;21694;-88
2020/12/01 05:52:31;;;;;;;60.23;17.73;;;;;;;1.59;100.00;101963.98;1548880;92;21218;-89
2020/12/01 05:55:11;;;;;;;61.60;18.12;;;;;;;1.71;100.00;101961.81;1549086;92;21209;-89
2020/12/01 06:01:17;;;;;;;62.50;17.32;;;;;;;1.86;99.88;101967.27;1552911;92;21232;-88
2020/12/01 06:03:58;;;;;;;62.25;19.32;;;;;;;1.61;100.00;101963.29;1552914;92;21051;-88
2020/12/01 06:06:28;;;;;;;56.48;17.98;;;;;;;1.57;100.00;101962.80;1552944;92;21243;-87
2020/12/01 06:09:23;;;;;;;59.58;17.45;;;;;;;1.78;100.00;101972.09;1558414;91;21275;-88
2020/12/01 06:12:07;;;;;;;49.77;17.52;;;;;;;1.72;100.00;101961.63;1567669;89;21626;-88
2020/12/01 06:18:47;;;;;;;61.85;18.52;;;;;;;1.60;100.00;101962.97;1578422;89;21324;-89
2020/12/01 06:21:14;;;;;;;63.98;19.67;;;;;;;1.59;100.00;101959.48;1578445;89;21237;-88
2020/12/01 06:24:25;;;;;;;68.35;21.35;;;;;;;1.63;100.00;101959.98;1578220;89;21264;-89
2020/12/01 06:27:05;;;;;;;61.37;20.05;;;;;;;1.55;100.00;101973.25;1578411;89;21244;-87
2020/12/01 06:29:58;;;;;;;64.05;20.02;;;;;;;1.63;100.00;101957.83;1504493;93;21269;-87
2020/12/01 06:39:59;;;;;;;59.75;21.33;;;;;;;1.87;99.53;101955.13;1489325;94;21229;-89
2020/12/01 06:42:40;;;;;;;69.42;21.95;;;;;;;1.85;99.42;101954.96;1493141;94;21318;-88
2020/12/01 06:45:41;;;;;;;62.73;21.25;;;;;;;1.86;99.17;101949.49;1492057;95;21238;-89
2020/12/01 06:48:12;;;;;;;61.48;20.68;;;;;;;1.73;99.36;101954.48;1486128;94;21260;-90
2020/12/01 06:50:44;;;;;;;61.65;21.33;;;;;;;1.91;98.89;101959.60;1490318;95;21227;-90
2020/12/01 06:53:10;;;;;;;55.52;20.20;;;;;;;1.95;98.34;101955.63;1490322;96;21274;-90
2020/12/01 06:55:55;;;;;;;67.17;21.52;;;;;;;2.17;96.08;101954.06;1506561;93;21104;-89
2020/12/01 07:01:29;;;;;;;65.28;20.08;;;;;;;2.17;94.63;101966.03;1500100;94;21162;-90
2020/12/01 07:04:09;;;;;;;65.55;22.10;;;;;;;2.12;95.04;101960.38;1515260;94;21203;-90
2020/12/01 07:06:50;;;;;;;46.55;13.55;;;;;;;2.23;95.11;101972.82;1477174;97;22075;-91
2020/12/01 07:09:22;;;;;;;57.17;16.45;;;;;;;1.99;93.07;101958.27;1515623;94;21061;-89
2020/12/01 07:12:03;;;;;;;57.25;17.77;;;;;;;1.81;92.91;101957.95;1475909;97;21613;-90
2020/12/01 07:14:52;;;;;;;57.95;18.00;;;;;;;1.98;92.64;101961.93;1490579;96;21286;-89
2020/12/01 07:17:29;;;;;;;56.53;19.20;;;;;;;2.12;91.81;101971.88;1457978;97;21245;-89
2020/12/01 07:20:09;;;;;;;58.08;19.10;;;;;;;2.38;91.43;101974.78;1510127;93;21663;-89
2020/12/01 07:22:43;;;;;;;58.35;20.23;;;;;;;2.36;90.84;101979.46;1464791;95;21302;-89
2020/12/01 07:25:44;;;;;;;66.87;19.70;;;;;;;2.38;89.78;101979.63;1508948;91;21274;-89
2020/12/01 07:28:21;;;;;;;78.65;22.45;;;;;;;2.29;90.00;101981.95;1551385;91;21323;-90
2020/12/01 07:30:52;;;;;;;82.27;22.77;;;;;;;2.23;89.50;101977.31;1551177;91;21186;-90
2020/12/01 07:33:24;;;;;;;82.92;23.73;;;;;;;2.22;89.14;101980.48;1551221;91;21209;-89
2020/12/01 07:35:55;;;;;;;86.42;23.85;;;;;;;2.05;90.20;101986.33;1496262;94;21332;-90
2020/12/01 07:38:44;;;;;;;70.32;18.10;;;;;;;2.42;89.19;101986.25;1497214;94;21194;-91
2020/12/01 07:41:27;;;;;;;60.25;20.08;;;;;;;2.02;89.65;101973.38;1497281;94;21326;-90
2020/12/01 07:44:14;;;;;;;85.77;22.05;;;;;;;2.26;88.11;101989.80;1497363;94;21202;-89
2020/12/01 07:53:05;;;;;;;61.90;19.48;;;;;;;2.28;88.20;101981.12;1505138;94;21611;-89
2020/12/01 07:55:48;;;;;;;62.23;22.80;;;;;;;2.27;87.84;101983.97;1504839;94;21322;-86
2020/12/01 07:58:21;;;;;;;54.53;19.82;;;;;;;2.25;87.86;101985.96;1488885;93;21467;-86
2020/12/01 08:00:55;;;;;;;60.67;21.23;;;;;;;2.28;87.49;101985.11;1456297;95;21283;-88
2020/12/01 08:03:24;;;;;;;62.25;20.85;;;;;;;2.30;87.46;101972.98;1534244;91;21224;-88
2020/12/01 08:05:52;;;;;;;56.98;16.23;;;;;;;2.25;87.76;101976.66;1516383;94;21230;-88
2020/12/01 08:08:21;;;;;;;58.35;17.50;;;;;;;2.04;88.01;101980.69;1506122;94;21238;-88
2020/12/01 08:10:49;;;;;;;54.33;18.10;;;;;;;2.24;86.89;101986.47;1475113;97;21173;-88
2020/12/01 08:13:16;;;;;;;64.12;20.52;;;;;;;2.28;87.37;101986.44;1476997;95;21982;-87
2020/12/01 08:15:44;;;;;;;70.03;21.37;;;;;;;2.35;86.71;101977.78;1479442;97;21513;-87
2020/12/01 08:18:15;;;;;;;71.65;23.57;;;;;;;2.23;87.15;101983.45;1479432;97;21290;-87
2020/12/01 08:20:42;;;;;;;66.62;22.15;;;;;;;2.38;87.43;101978.77;1480052;95;21934;-87
2020/12/01 08:23:19;;;;;;;67.82;20.95;;;;;;;2.37;86.99;101977.94;1479792;97;21241;-87
2020/12/01 08:26:04;;;;;;;71.87;22.85;;;;;;;2.34;86.80;101985.44;1440526;99;21483;-88
2020/12/01 08:28:40;;;;;;;77.90;22.87;;;;;;;2.35;86.59;101975.12;1430175;98;21690;-87
2020/12/01 08:31:57;;;;;;;59.00;19.10;;;;;;;2.40;86.73;101976.77;1469978;96;21304;-86
2020/12/01 08:34:39;;;;;;;65.75;20.45;;;;;;;2.32;87.22;101974.95;1472691;96;21274;-88
2020/12/01 08:37:33;;;;;;;62.33;18.90;;;;;;;2.32;86.89;101970.97;1452200;98;21265;-87
2020/12/01 08:40:02;;;;;;;;;;;;;;;2.34;85.85;101967.64;1455038;97;21419;-86
2020/12/01 08:43:15;;;;;;;55.98;19.73;;;;;;;2.20;86.30;101963.86;1450058;97;20288;-87
2020/12/01 08:45:46;;;;;;;58.42;19.05;;;;;;;2.10;87.56;101960.58;1452823;98;21311;-87
2020/12/01 08:48:23;;;;;;;55.10;17.62;;;;;;;2.07;87.76;101962.24;1445264;97;21357;-87
2020/12/01 08:51:00;;;;;;;53.20;16.15;;;;;;;2.13;87.81;101955.42;1425470;99;21361;-87
2020/12/01 08:53:26;;;;;;;54.18;17.50;;;;;;;2.02;88.16;101958.75;1425875;100;21342;-88
2020/12/01 08:55:57;;;;;;;54.67;17.37;;;;;;;2.15;86.99;101950.27;1426876;100;21705;-87
2020/12/01 08:58:40;;;;;;;56.85;17.57;;;;;;;2.34;86.85;101948.20;1426800;99;21358;-87
2020/12/01 09:01:14;;;;;;;52.88;16.42;;;;;;;2.03;87.99;101944.98;1443875;98;21248;-87
2020/12/01 09:03:56;;;;;;;57.85;17.87;;;;;;;2.05;88.16;101937.64;1470210;97;21285;-87
2020/12/01 09:06:33;;;;;;;60.28;18.32;;;;;;;2.34;87.47;101936.23;1460789;97;21481;-87
2020/12/01 09:09:06;;;;;;;53.45;16.35;;;;;;;2.50;86.62;101937.51;1500929;94;21535;-88
2020/12/01 09:12:00;;;;;;;57.70;16.40;;;;;;;2.23;85.89;101928.11;1514904;94;21303;-87
2020/12/01 09:14:28;;;;;;;53.05;16.85;;;;;;;2.17;86.61;101928.80;1538095;92;21317;-87
2020/12/01 09:22:28;;;;;;;58.15;18.70;;;;;;;2.40;86.49;101929.72;1550839;90;21202;-87
2020/12/01 09:25:21;;;;;;;51.53;17.67;;;;;;;2.30;87.69;101922.96;1582828;89;21685;-88
2020/12/01 09:27:49;;;;;;;48.33;15.03;;;;;;;2.36;87.11;101926.26;1536167;91;21326;-87
2020/12/01 09:30:32;;;;;;;58.23;18.17;;;;;;;2.28;86.68;101923.12;1537708;91;21270;-86
2020/12/01 09:32:58;;;;;;;;;;;;;;;2.37;87.18;101922.59;1445936;97;21297;-87
2020/12/01 09:35:27;;;;;;;50.75;17.82;;;;;;;2.54;85.64;101914.03;1444143;98;20285;-87
2020/12/01 09:37:54;;;;;;;53.55;17.80;;;;;;;2.40;86.62;101916.92;1444277;98;21809;-87
2020/12/01 09:40:31;;;;;;;58.00;17.27;;;;;;;2.27;87.61;101917.48;1443729;97;21459;-88
2020/12/01 09:43:04;;;;;;;57.05;17.42;;;;;;;2.40;86.34;101915.08;1453184;97;21564;-87
2020/12/01 09:45:30;;;;;;;54.73;15.88;;;;;;;2.43;86.68;101913.41;1457040;95;21276;-86
2020/12/01 09:48:03;;;;;;;54.27;18.00;;;;;;;2.38;86.60;101914.92;1476719;94;21225;-86
2020/12/01 09:50:35;;;;;;;53.63;16.90;;;;;;;2.16;87.74;101905.88;1471723;96;21246;-88
2020/12/01 10:13:57;;;;;;;63.83;19.73;;;;;;;2.17;87.69;101895.06;1431518;100;21323;-87
2020/12/01 10:22:47;;;;;;;53.87;18.50;;;;;;;2.14;88.28;101887.93;1432690;100;21340;-86
2020/12/01 10:37:08;;;;;;;44.58;14.70;;;;;;;2.25;87.79;101887.56;1546177;92;21645;-86
2020/12/01 10:39:34;;;;;;;58.50;17.40;;;;;;;2.18;87.72;101882.11;1547995;90;21340;-86
2020/12/01 10:42:09;;;;;;;46.20;15.72;;;;;;;2.14;87.88;101881.28;1569050;91;21074;-86
2020/12/01 10:44:36;;;;;;;48.20;17.35;;;;;;;2.07;88.68;101882.98;1556814;91;21263;-86
2020/12/01 10:47:02;;;;;;;51.88;16.42;;;;;;;2.20;88.30;101893.38;1605538;87;21394;-86
2020/12/01 10:49:28;;;;;;;53.60;15.60;;;;;;;2.20;88.23;101877.93;1624304;86;21189;-86
2020/12/01 10:51:54;;;;;;;50.52;17.15;;;;;;;2.31;87.96;101875.41;1655496;85;21716;-86
2020/12/01 10:54:21;;;;;;;60.52;17.57;;;;;;;2.44;87.38;101877.84;1666734;81;21274;-86
2020/12/01 10:56:51;;;;;;;60.52;18.95;;;;;;;2.41;86.43;101876.00;1754582;80;21173;-86
2020/12/01 10:59:21;;;;;;;73.07;22.55;;;;;;;2.59;86.90;101873.94;1755387;81;21093;-86
2020/12/01 11:01:47;;;;;;;70.37;20.37;;;;;;;2.50;87.29;101873.15;1755527;80;21153;-87
2020/12/01 11:04:13;;;;;;;64.65;20.60;;;;;;;2.39;87.69;101872.20;1736143;80;22076;-86
2020/12/01 11:06:39;;;;;;;58.73;18.48;;;;;;;2.49;87.38;101873.31;1755298;80;20927;-86
2020/12/01 11:09:08;;;;;;;51.10;16.40;;;;;;;2.47;87.63;101868.66;1755384;80;21113;-86
2020/12/01 11:11:34;;;;;;;52.05;17.20;;;;;;;2.41;87.22;101862.23;1755674;80;21211;-86
2020/12/01 11:14:02;;;;;;;59.00;18.65;;;;;;;2.46;87.31;101855.86;1755707;80;21057;-86
2020/12/01 11:16:29;;;;;;;51.92;16.55;;;;;;;2.52;86.09;101864.97;1755551;80;22347;-87
2020/12/01 11:18:54;;;;;;;50.43;17.40;;;;;;;2.93;84.29;101860.72;1755584;80;21578;-86
2020/12/01 11:21:20;;;;;;;61.73;19.85;;;;;;;2.79;84.75;101864.14;1755626;80;20899;-86
2020/12/01 11:23:46;;;;;;;61.88;16.93;;;;;;;2.64;85.48;101858.24;1736191;81;21160;-87
2020/12/01 11:26:15;;;;;;;55.08;16.23;;;;;;;2.76;84.41;101858.66;1755653;80;21701;-86
2020/12/01 11:28:42;;;;;;;52.27;17.65;;;;;;;2.90;83.46;101851.75;1755529;80;21251;-87
2020/12/01 11:31:08;;;;;;;56.53;18.77;;;;;;;2.96;83.66;101852.38;1755570;80;21125;-87
2020/12/01 11:33:34;;;;;;;51.28;18.10;;;;;;;2.93;83.39;101846.90;1736151;81;21096;-87
2020/12/01 11:36:01;;;;;;;47.65;16.15;;;;;;;3.04;83.07;101846.17;1755612;80;21123;-87
2020/12/01 11:38:27;;;;;;;44.50;15.95;;;;;;;2.80;83.74;101853.34;1755486;80;21594;-87
2020/12/01 11:40:53;;;;;;;50.12;16.42;;;;;;;2.61;84.85;101854.61;1755600;80;21161;-87
2020/12/01 11:46:59;;;;;;;53.52;17.50;;;;;;;2.79;83.56;101862.81;1755578;80;21611;-88
2020/12/01 11:49:25;;;;;;;54.58;17.27;;;;;;;2.71;83.56;101854.40;1759438;80;21037;-88
2020/12/01 11:51:51;;;;;;;50.95;15.80;;;;;;;2.72;83.76;101861.37;1760807;80;21168;-89
2020/12/01 11:54:19;;;;;;;45.23;15.15;;;;;;;2.80;83.19;101856.50;1760885;80;21216;-87
2020/12/01 11:56:45;;;;;;;50.28;17.07;;;;;;;2.90;82.20;101865.89;1761000;80;21152;-88
2020/12/01 11:59:11;;;;;;;53.13;16.35;;;;;;;2.76;83.06;101860.50;1760483;80;21121;-87
2020/12/01 12:05:18;;;;;;;45.58;15.32;;;;;;;2.89;82.33;101857.59;1763848;79;21120;-87
2020/12/01 12:07:45;;;;;;;42.25;14.78;;;;;;;2.90;82.49;101859.74;1752915;81;21937;-88
2020/12/01 12:10:10;;;;;;;48.40;14.58;;;;;;;2.90;82.40;101859.23;1737952;81;21088;-88
2020/12/01 12:12:36;;;;;;;50.03;16.25;;;;;;;2.58;83.37;101861.61;1740160;80;21162;-88
2020/12/01 12:15:04;;;;;;;41.75;14.68;;;;;;;2.77;83.52;101864.34;1735658;81;21211;-88
2020/12/01 12:17:30;;;;;;;49.60;16.05;;;;;;;2.87;82.42;101870.75;1735713;81;21164;-88
2020/12/01 12:19:56;;;;;;;48.55;16.48;;;;;;;2.90;83.23;101871.72;1735618;81;21794;-88
2020/12/01 12:22:22;;;;;;;51.75;16.10;;;;;;;2.64;82.80;101872.88;1735547;81;20922;-88
2020/12/01 12:24:48;;;;;;;69.27;17.82;;;;;;;2.75;82.73;101876.98;1735665;81;21172;-88
2020/12/01 12:27:14;;;;;;;55.25;17.48;;;;;;;2.69;82.58;101869.70;1735717;81;20910;-87
2020/12/01 12:29:40;;;;;;;38.50;13.20;;;;;;;2.75;82.87;101867.67;1735640;81;20954;-88
2020/12/01 12:32:06;;;;;;;39.88;13.50;;;;;;;2.86;81.35;101871.25;1708495;82;21244;-87
2020/12/01 12:34:31;;;;;;;49.67;16.02;;;;;;;2.68;81.27;101865.40;1712600;79;21156;-89
2020/12/01 12:36:57;;;;;;;48.55;15.55;;;;;;;2.89;81.19;101867.42;1780802;79;20982;-89
2020/12/01 12:39:23;;;;;;;46.55;15.25;;;;;;;2.96;81.39;101864.35;1736213;80;20958;-89
2020/12/01 12:41:49;;;;;;;50.65;15.88;;;;;;;2.91;81.31;101874.70;1764542;79;21110;-89
2020/12/01 12:44:15;;;;;;;53.65;17.23;;;;;;;2.56;82.52;101873.43;1711419;81;21950;-89
2020/12/01 12:46:41;;;;;;;48.28;13.88;;;;;;;2.27;84.31;101869.61;1726516;79;20927;-89
2020/12/01 12:52:47;;;;;;;57.73;16.40;;;;;;;2.07;85.72;101865.70;1724468;81;21210;-89
2020/12/01 12:55:13;;;;;;;47.53;13.00;;;;;;;2.00;85.86;101873.52;1724530;81;20932;-88
2020/12/01 12:57:39;;;;;;;51.88;16.80;;;;;;;1.97;85.71;101873.86;1724342;82;21702;-88
2020/12/01 13:00:07;;;;;;;50.30;16.93;;;;;;;1.91;86.13;101876.73;1724372;81;21039;-88
2020/12/01 13:02:33;;;;;;;56.28;18.05;;;;;;;1.98;86.45;101884.84;1724357;82;21138;-88
2020/12/01 13:04:59;;;;;;;53.70;15.88;;;;;;;2.10;86.02;101884.80;1724376;81;21035;-88
2020/12/01 13:07:25;;;;;;;59.63;18.27;;;;;;;1.86;86.77;101888.36;1724307;82;21078;-87
2020/12/01 13:09:50;;;;;;;50.17;15.95;;;;;;;1.96;86.70;101882.34;1724349;82;21300;-89